Time;durP1;ratioP1;P1;durP2;ratioP2;P2;SDS_P1;SDS_P2;PMS_P1;PMS_P2;Temp;Humidity;BMP_temperature;BMP_pressure;BME280_temperature;BME280_humidity;BME280_pressure;Samples;Min_cycle;Max_cycle;Signal;HPM_P1;HPM_P2
2023/01/22 00:03:28;;;;;;;5.38;3.58;;;14.00;62.40;;;;;;10432648;28;20464;-62
2023/01/22 00:08:29;;;;;;;4.90;3.72;;;14.00;62.40;;;;;;10414321;28;20028;-63
2023/01/22 00:13:30;;;;;;;5.25;4.15;;;13.90;62.50;;;;;;10422700;28;20058;-63
2023/01/22 00:18:31;;;;;;;5.20;4.38;;;13.90;61.80;;;;;;10409300;28;20496;-62
2023/01/22 00:23:32;;;;;;;5.47;3.58;;;13.90;61.80;;;;;;10435995;28;20509;-61
2023/01/22 00:28:32;;;;;;;4.88;3.60;;;13.90;61.90;;;;;;10422165;28;20029;-63
2023/01/22 00:33:33;;;;;;;5.93;3.80;;;13.90;62.10;;;;;;10436354;28;20045;-63
2023/01/22 00:38:34;;;;;;;4.97;3.10;;;13.90;62.20;;;;;;10442176;28;20548;-62
2023/01/22 00:43:39;;;;;;;3.92;2.85;;;13.80;62.10;;;;;;10443468;28;20508;-63
2023/01/22 00:48:41;;;;;;;4.65;3.72;;;13.80;62.30;;;;;;10409202;28;20044;-62
2023/01/22 00:53:43;;;;;;;5.28;3.95;;;13.80;62.20;;;;;;10414765;28;20018;-63
2023/01/22 00:58:44;;;;;;;4.35;3.30;;;13.80;62.30;;;;;;10407399;28;20095;-63
2023/01/22 01:03:44;;;;;;;4.22;3.63;;;13.70;62.30;;;;;;10406702;28;20487;-63
2023/01/22 01:08:46;;;;;;;5.30;3.50;;;13.70;62.20;;;;;;10407457;28;20026;-63
2023/01/22 01:13:49;;;;;;;3.88;3.25;;;13.70;62.30;;;;;;10406932;28;20397;-63
2023/01/22 01:18:49;;;;;;;5.15;3.75;;;13.70;62.30;;;;;;10406850;28;20037;-60
2023/01/22 01:23:50;;;;;;;3.83;2.92;;;13.70;62.20;;;;;;10433632;28;20029;-59
2023/01/22 01:28:51;;;;;;;4.35;3.22;;;13.70;62.30;;;;;;10406534;28;20021;-59
2023/01/22 01:33:52;;;;;;;4.47;3.13;;;13.70;62.30;;;;;;10406726;28;20075;-58
2023/01/22 01:38:56;;;;;;;5.35;3.38;;;13.70;62.40;;;;;;10407652;28;20494;-58
2023/01/22 01:44:09;;;;;;;4.25;3.53;;;13.70;62.40;;;;;;10417844;28;20021;-59
2023/01/22 01:49:28;;;;;;;6.15;5.13;;;13.60;62.20;;;;;;10411807;28;20601;-59
2023/01/22 01:54:30;;;;;;;3.95;3.03;;;13.60;62.10;;;;;;10420304;28;20017;-59
2023/01/22 01:59:32;;;;;;;4.68;3.10;;;13.60;62.00;;;;;;10405078;28;20010;-59
2023/01/22 02:04:33;;;;;;;4.68;3.40;;;13.60;62.10;;;;;;10409771;28;20028;-59
2023/01/22 02:09:33;;;;;;;4.18;3.13;;;13.60;62.30;;;;;;10428642;28;20037;-59
2023/01/22 02:14:39;;;;;;;5.03;3.30;;;13.60;62.20;;;;;;10404645;28;20052;-59
2023/01/22 02:19:41;;;;;;;3.97;2.95;;;13.50;62.20;;;;;;10425362;28;20092;-59
2023/01/22 02:24:42;;;;;;;4.93;2.60;;;13.50;62.20;;;;;;10432448;28;20025;-59
2023/01/22 02:29:43;;;;;;;4.05;3.08;;;13.50;62.30;;;;;;10391328;28;20022;-60
2023/01/22 02:34:43;;;;;;;4.53;3.15;;;13.50;62.30;;;;;;10405513;28;20698;-59
2023/01/22 02:39:44;;;;;;;3.42;2.80;;;13.50;62.30;;;;;;10405557;28;20437;-59
2023/01/22 02:44:45;;;;;;;3.67;2.70;;;13.50;62.20;;;;;;10430133;28;20448;-59
2023/01/22 02:49:45;;;;;;;3.80;2.60;;;13.50;62.20;;;;;;10439076;28;20104;-59
2023/01/22 02:54:46;;;;;;;3.63;2.53;;;13.40;62.20;;;;;;10449088;28;20120;-59
2023/01/22 02:59:47;;;;;;;4.68;3.00;;;13.40;62.20;;;;;;10454884;28;20092;-59
2023/01/22 03:04:49;;;;;;;4.03;3.05;;;13.40;62.10;;;;;;10436915;28;20029;-59
2023/01/22 03:09:49;;;;;;;4.05;3.00;;;13.40;62.20;;;;;;10434255;28;20487;-59
2023/01/22 03:25:29;;;;;;;4.53;3.20;;;13.40;62.20;;;;;;10453925;28;20481;-59
2023/01/22 03:30:29;;;;;;;4.30;2.88;;;13.40;61.90;;;;;;10436204;28;20056;-59
2023/01/22 03:35:30;;;;;;;5.07;3.22;;;13.30;61.70;;;;;;10412201;28;20437;-59
2023/01/22 03:40:31;;;;;;;4.47;2.58;;;13.30;61.90;;;;;;10411985;28;20532;-59
2023/01/22 03:45:33;;;;;;;3.03;2.28;;;13.30;61.80;;;;;;10423497;28;20028;-59
2023/01/22 03:50:35;;;;;;;3.72;2.75;;;13.30;61.90;;;;;;10416791;28;20029;-59
2023/01/22 03:55:35;;;;;;;3.88;2.67;;;13.30;61.80;;;;;;10411542;28;20076;-58
2023/01/22 04:00:36;;;;;;;4.03;3.30;;;13.30;62.00;;;;;;10411235;28;20134;-59
2023/01/22 04:05:37;;;;;;;3.28;2.30;;;13.30;62.00;;;;;;10408627;28;20109;-59
2023/01/22 04:10:38;;;;;;;3.45;2.50;;;13.30;62.10;;;;;;10411242;28;20504;-59
2023/01/22 04:15:41;;;;;;;3.75;2.80;;;13.30;62.10;;;;;;10424696;28;20135;-59
2023/01/22 04:20:42;;;;;;;3.63;2.30;;;13.30;62.00;;;;;;10442802;28;20025;-59
2023/01/22 04:25:44;;;;;;;3.67;2.20;;;13.30;62.00;;;;;;10448929;28;20039;-59
2023/01/22 04:30:46;;;;;;;4.25;2.40;;;13.30;62.30;;;;;;10434102;28;20013;-59
2023/01/22 04:35:52;;;;;;;3.30;2.42;;;13.30;62.10;;;;;;10434214;28;20039;-59
2023/01/22 04:40:52;;;;;;;2.97;1.88;;;13.40;62.10;;;;;;10429996;28;20550;-59
2023/01/22 04:45:53;;;;;;;3.60;2.25;;;13.40;61.90;;;;;;10429571;28;20030;-59
2023/01/22 04:50:54;;;;;;;3.13;2.33;;;13.40;61.90;;;;;;10429866;28;20100;-59
2023/01/22 04:55:54;;;;;;;4.07;2.33;;;13.40;61.90;;;;;;10427261;28;20432;-60
2023/01/22 05:00:56;;;;;;;3.58;1.92;;;13.40;61.90;;;;;;10430594;28;20024;-58
2023/01/22 05:06:01;;;;;;;3.83;2.20;;;13.40;62.00;;;;;;10431371;28;20013;-58
2023/01/22 05:11:02;;;;;;;3.10;1.88;;;13.40;62.10;;;;;;10450454;28;20025;-59
2023/01/22 05:16:03;;;;;;;3.30;1.80;;;13.50;61.80;;;;;;10435029;28;20548;-59
2023/01/22 05:21:04;;;;;;;2.92;1.75;;;13.70;61.20;;;;;;10427802;28;20030;-59
2023/01/22 05:26:05;;;;;;;2.60;2.13;;;13.90;60.60;;;;;;10444525;28;20013;-59
2023/01/22 05:31:06;;;;;;;2.83;1.70;;;14.10;60.10;;;;;;10453335;28;20029;-59
2023/01/22 05:36:08;;;;;;;3.42;1.73;;;14.20;59.70;;;;;;10393876;28;20485;-59
2023/01/22 05:41:08;;;;;;;2.88;2.20;;;14.40;59.60;;;;;;10433297;28;20075;-59
2023/01/22 05:46:09;;;;;;;2.92;1.73;;;14.50;59.30;;;;;;10431379;28;20445;-59
2023/01/22 05:51:10;;;;;;;2.97;1.65;;;14.60;59.10;;;;;;10429861;28;20543;-59
2023/01/22 05:56:10;;;;;;;3.38;2.60;;;14.70;58.90;;;;;;10430880;28;20108;-58
2023/01/22 06:01:11;;;;;;;3.72;3.22;;;14.80;58.70;;;;;;10417941;28;20105;-58
2023/01/22 06:06:13;;;;;;;6.65;3.42;;;14.90;58.40;;;;;;10432367;28;20079;-59
2023/01/22 06:11:16;;;;;;;8.55;7.72;;;14.80;59.30;;;;;;10444259;28;20031;-59
2023/01/22 06:16:16;;;;;;;8.73;6.60;;;14.80;60.00;;;;;;10441160;28;20136;-57
2023/01/22 06:21:17;;;;;;;9.43;6.35;;;15.10;60.70;;;;;;10443704;28;20014;-57
2023/01/22 06:26:18;;;;;;;12.65;6.10;;;15.50;60.60;;;;;;10429167;28;20108;-56
2023/01/22 06:31:18;;;;;;;13.93;7.20;;;15.60;59.70;;;;;;10444593;28;20104;-56
2023/01/22 06:36:19;;;;;;;12.02;7.05;;;15.40;60.80;;;;;;10446539;28;20116;-56
2023/01/22 06:41:20;;;;;;;14.15;6.65;;;15.70;61.60;;;;;;10437895;28;20399;-57
2023/01/22 06:46:20;;;;;;;11.25;6.82;;;15.80;60.80;;;;;;10428385;28;20486;-57
2023/01/22 06:51:21;;;;;;;19.77;6.75;;;15.70;61.60;;;;;;10441037;28;20769;-57
2023/01/22 06:56:22;;;;;;;17.55;6.30;;;15.60;61.00;;;;;;10439870;28;20120;-57
2023/01/22 07:01:24;;;;;;;13.65;6.63;;;15.60;61.10;;;;;;10432728;28;20116;-57
2023/01/22 07:06:25;;;;;;;17.25;5.82;;;15.60;61.00;;;;;;10433383;28;20025;-56
2023/01/22 07:11:26;;;;;;;7.95;5.50;;;15.50;61.00;;;;;;10435107;28;20021;-56
2023/01/22 07:16:26;;;;;;;32.83;7.22;;;15.50;60.90;;;;;;10438190;28;20041;-57
2023/01/22 07:21:27;;;;;;;18.85;5.95;;;15.40;60.90;;;;;;10437732;28;20096;-57
2023/01/22 07:26:28;;;;;;;22.95;6.18;;;15.60;60.70;;;;;;10443153;28;20024;-57
2023/01/22 07:31:28;;;;;;;22.35;5.43;;;15.90;59.20;;;;;;10438029;28;20138;-57
2023/01/22 07:36:29;;;;;;;17.05;5.60;;;16.10;58.80;;;;;;10443121;28;20060;-57
2023/01/22 07:41:30;;;;;;;18.48;5.28;;;16.10;58.60;;;;;;10447752;28;20112;-57
2023/01/22 07:46:30;;;;;;;14.32;4.43;;;16.10;58.90;;;;;;10438537;28;20009;-57
2023/01/22 07:51:31;;;;;;;26.90;5.78;;;15.90;60.00;;;;;;10453079;28;20053;-57
2023/01/22 07:56:32;;;;;;;19.15;5.15;;;15.70;60.30;;;;;;10452640;28;20037;-58
2023/01/22 08:01:33;;;;;;;13.20;5.15;;;15.70;61.00;;;;;;10452451;28;20443;-58
2023/01/22 08:06:33;;;;;;;14.55;4.43;;;15.60;61.10;;;;;;10430357;28;20049;-58
2023/01/22 08:11:34;;;;;;;16.13;3.95;;;15.70;61.20;;;;;;10411072;28;20049;-58
2023/01/22 08:16:35;;;;;;;12.30;3.65;;;15.90;60.30;;;;;;10435402;28;20135;-57
2023/01/22 08:21:36;;;;;;;9.50;2.72;;;16.00;60.30;;;;;;10424162;28;20017;-57
2023/01/22 08:26:38;;;;;;;11.00;3.08;;;16.00;60.30;;;;;;10425716;28;20052;-59
2023/01/22 08:31:38;;;;;;;13.77;2.78;;;16.20;60.30;;;;;;10409131;28;20044;-56
2023/01/22 08:36:39;;;;;;;13.38;3.25;;;16.20;60.30;;;;;;10408732;28;20034;-57
2023/01/22 08:41:40;;;;;;;9.60;3.38;;;16.10;61.00;;;;;;10413193;28;21591;-58
2023/01/22 08:46:41;;;;;;;11.60;2.72;;;16.20;60.80;;;;;;10439194;28;20032;-57
2023/01/22 08:51:42;;;;;;;8.52;2.15;;;16.00;61.00;;;;;;10434798;28;20066;-59
2023/01/22 08:56:42;;;;;;;14.77;3.28;;;16.00;61.20;;;;;;10433648;28;20128;-58
2023/01/22 09:01:43;;;;;;;10.70;3.13;;;16.10;61.60;;;;;;10429341;28;20052;-58
2023/01/22 09:06:44;;;;;;;11.45;2.30;;;16.20;61.40;;;;;;10431835;28;20607;-59
2023/01/22 09:11:45;;;;;;;14.43;4.28;;;16.30;60.90;;;;;;10429791;28;20022;-58
2023/01/22 09:16:46;;;;;;;13.75;2.20;;;16.30;61.20;;;;;;10425802;28;20029;-59
2023/01/22 09:21:47;;;;;;;12.43;3.10;;;16.30;61.10;;;;;;10433923;28;20071;-58
2023/01/22 09:26:47;;;;;;;15.13;2.72;;;16.30;61.20;;;;;;10429278;28;20021;-57
2023/01/22 09:31:49;;;;;;;19.55;3.55;;;16.20;60.80;;;;;;10463629;28;20028;-58
2023/01/22 09:36:50;;;;;;;12.70;3.20;;;16.10;61.20;;;;;;10473906;28;20028;-55
2023/01/22 09:41:56;;;;;;;28.63;4.07;;;16.00;61.70;;;;;;10480127;28;20012;-58
2023/01/22 09:47:23;;;;;;;16.98;2.97;;;16.00;62.10;;;;;;10471930;28;20070;-58
2023/01/22 09:52:29;;;;;;;21.45;4.38;;;16.20;61.70;;;;;;10476045;28;20474;-57
2023/01/22 09:57:30;;;;;;;27.17;4.90;;;15.90;63.40;;;;;;10479297;28;20253;-56
2023/01/22 10:02:47;;;;;;;24.05;4.50;;;15.90;62.90;;;;;;10475279;28;20045;-57
2023/01/22 10:07:59;;;;;;;31.83;6.88;;;16.00;62.30;;;;;;10475483;28;20025;-56
2023/01/22 10:13:26;;;;;;;20.63;3.55;;;15.90;63.30;;;;;;10450659;28;20575;-61
2023/01/22 10:18:46;;;;;;;21.27;4.03;;;16.10;62.90;;;;;;10473417;28;20077;-59
2023/01/22 10:23:49;;;;;;;23.13;3.97;;;16.30;62.00;;;;;;10460863;28;20004;-59
2023/01/22 10:28:56;;;;;;;17.75;2.80;;;16.40;61.60;;;;;;10445280;28;20444;-59
2023/01/22 10:34:01;;;;;;;16.38;3.05;;;16.40;61.90;;;;;;10439298;28;20082;-59
2023/01/22 10:39:13;;;;;;;16.55;2.80;;;16.50;61.70;;;;;;10439631;28;20033;-60
2023/01/22 10:44:23;;;;;;;11.43;2.70;;;16.50;62.00;;;;;;10443066;28;20128;-58
2023/01/22 10:49:26;;;;;;;15.48;2.55;;;16.50;62.10;;;;;;10438491;28;20368;-60
2023/01/22 10:54:40;;;;;;;17.95;3.47;;;16.40;62.50;;;;;;10443466;28;20044;-59
2023/01/22 10:59:52;;;;;;;19.10;3.33;;;16.40;62.70;;;;;;10423663;28;20119;-58
2023/01/22 11:04:52;;;;;;;16.52;2.38;;;16.40;62.20;;;;;;10454138;28;20132;-59
2023/01/22 11:10:14;;;;;;;17.27;2.72;;;16.30;63.40;;;;;;10440795;28;20127;-62
2023/01/22 11:15:37;;;;;;;17.70;3.33;;;16.30;62.70;;;;;;10440466;28;20049;-57
2023/01/22 11:20:57;;;;;;;16.27;2.50;;;16.30;62.90;;;;;;10447123;28;20759;-58
2023/01/22 11:26:27;;;;;;;16.85;2.70;;;16.20;63.00;;;;;;10453655;28;20078;-58
2023/01/22 11:31:57;;;;;;;18.23;2.45;;;16.20;63.10;;;;;;10452739;28;20384;-57
2023/01/22 11:37:16;;;;;;;15.47;3.27;;;16.10;63.30;;;;;;10439020;28;20044;-55
2023/01/22 11:42:34;;;;;;;21.27;3.60;;;15.90;63.50;;;;;;10426069;28;20025;-60
2023/01/22 11:48:15;;;;;;;24.23;3.90;;;15.80;63.80;;;;;;10443474;28;20397;-60
2023/01/22 11:53:22;;;;;;;;;;;16.00;64.10;;;;;;10448022;28;20021;-59
2023/01/22 11:58:57;;;;;;;15.52;3.28;;;16.10;63.80;;;;;;10467538;28;19938;-59
2023/01/22 12:04:28;;;;;;;13.90;2.88;;;16.00;63.70;;;;;;10431610;28;20021;-57
2023/01/22 12:09:45;;;;;;;16.02;2.85;;;16.00;64.20;;;;;;10430513;28;20357;-57
2023/01/22 12:15:12;;;;;;;15.80;2.58;;;16.00;63.80;;;;;;10439519;28;20111;-57
2023/01/22 12:20:43;;;;;;;21.95;4.47;;;16.00;63.20;;;;;;10428980;28;20377;-58
2023/01/22 12:25:57;;;;;;;20.48;3.33;;;15.90;63.00;;;;;;10430256;28;20854;-59
2023/01/22 12:31:22;;;;;;;15.93;2.90;;;15.90;62.80;;;;;;10449807;28;20089;-60
2023/01/22 12:36:24;;;;;;;21.65;3.58;;;16.00;62.80;;;;;;10449858;28;20039;-58
2023/01/22 12:41:57;;;;;;;13.55;2.95;;;16.10;63.00;;;;;;10450013;28;20020;-59
2023/01/22 12:47:13;;;;;;;14.57;2.38;;;16.10;63.00;;;;;;10408561;28;20364;-58
2023/01/22 12:52:35;;;;;;;13.70;2.60;;;16.30;62.80;;;;;;10416163;28;20026;-58
2023/01/22 12:57:40;;;;;;;14.38;2.38;;;16.30;62.70;;;;;;10407902;28;20022;-58
2023/01/22 13:02:41;;;;;;;11.48;2.47;;;16.40;62.40;;;;;;10410272;28;20095;-59
2023/01/22 13:07:42;;;;;;;9.20;2.45;;;16.60;62.20;;;;;;10418728;28;20113;-59
2023/01/22 13:12:48;;;;;;;10.48;2.10;;;16.60;62.60;;;;;;10407400;28;20037;-59
2023/01/22 13:18:13;;;;;;;12.55;3.10;;;16.60;63.50;;;;;;10430958;28;20025;-59
2023/01/22 13:23:14;;;;;;;6.68;2.03;;;16.50;65.30;;;;;;10435242;28;20653;-58
2023/01/22 13:28:17;;;;;;;11.98;3.05;;;16.30;65.70;;;;;;10435287;28;20461;-59
2023/01/22 13:33:18;;;;;;;13.73;3.15;;;16.50;65.80;;;;;;10419344;28;20094;-58
2023/01/22 13:38:24;;;;;;;13.73;3.17;;;16.90;64.10;;;;;;10429739;28;20512;-57
2023/01/22 13:43:26;;;;;;;18.85;3.42;;;16.90;63.10;;;;;;10433265;28;20024;-59
2023/01/22 13:48:27;;;;;;;12.48;3.25;;;16.50;64.50;;;;;;10426241;28;20095;-58
2023/01/22 13:53:33;;;;;;;14.93;4.22;;;16.20;64.90;;;;;;10448947;28;20032;-59
2023/01/22 13:58:40;;;;;;;7.55;2.67;;;16.00;65.10;;;;;;10427110;28;20033;-58
2023/01/22 14:03:41;;;;;;;21.65;3.63;;;15.90;65.00;;;;;;10417243;28;20676;-57
2023/01/22 14:08:54;;;;;;;15.15;3.65;;;16.00;64.30;;;;;;10418998;28;20024;-57
2023/01/22 14:13:55;;;;;;;18.58;3.83;;;15.90;63.80;;;;;;10423414;28;20444;-58
2023/01/22 14:18:56;;;;;;;8.45;2.65;;;15.80;63.50;;;;;;10445777;28;20120;-58
2023/01/22 14:23:57;;;;;;;17.33;4.13;;;15.90;63.50;;;;;;10423329;28;20385;-58
2023/01/22 14:28:58;;;;;;;7.13;2.75;;;15.80;63.20;;;;;;10404281;28;20018;-58
2023/01/22 14:33:59;;;;;;;15.98;2.80;;;15.90;62.90;;;;;;10402557;28;20026;-60
2023/01/22 14:39:00;;;;;;;8.00;2.35;;;15.90;62.60;;;;;;10403451;28;20108;-59
2023/01/22 14:44:02;;;;;;;11.35;2.80;;;15.90;62.50;;;;;;10413563;28;20047;-59
2023/01/22 14:49:04;;;;;;;7.93;1.95;;;15.90;62.40;;;;;;10405405;28;20013;-59
2023/01/22 14:54:05;;;;;;;8.95;2.13;;;15.90;62.30;;;;;;10406653;28;20078;-59
2023/01/22 14:59:05;;;;;;;6.28;2.13;;;15.90;62.10;;;;;;10418294;28;20035;-58
2023/01/22 15:04:06;;;;;;;7.57;2.08;;;15.90;62.00;;;;;;10431221;28;20093;-58
2023/01/22 15:09:07;;;;;;;8.63;2.17;;;15.90;61.80;;;;;;10404034;28;20107;-58
2023/01/22 15:14:07;;;;;;;4.07;1.70;;;15.90;61.60;;;;;;10403560;28;20065;-58
2023/01/22 15:19:08;;;;;;;10.63;2.17;;;15.90;61.50;;;;;;10403511;28;20030;-58
2023/01/22 15:24:09;;;;;;;4.60;1.95;;;15.90;61.30;;;;;;10437146;28;20112;-58
2023/01/22 15:29:12;;;;;;;3.97;1.45;;;15.90;61.10;;;;;;10426155;28;20029;-58
2023/01/22 15:34:13;;;;;;;8.27;2.17;;;16.00;61.00;;;;;;10403553;28;20079;-57
2023/01/22 15:39:14;;;;;;;8.05;2.00;;;16.00;60.80;;;;;;10409258;28;20460;-58
2023/01/22 15:44:14;;;;;;;6.30;2.50;;;16.00;60.70;;;;;;10422894;28;20134;-59
2023/01/22 15:49:16;;;;;;;14.90;2.75;;;15.90;61.10;;;;;;10429551;28;20111;-57
2023/01/22 15:54:17;;;;;;;13.55;2.30;;;15.90;61.50;;;;;;10444001;28;20104;-57
2023/01/22 15:59:18;;;;;;;9.50;2.25;;;16.20;60.70;;;;;;10444942;28;20036;-57
2023/01/22 16:04:19;;;;;;;6.53;1.95;;;16.30;60.30;;;;;;10442198;28;20017;-57
2023/01/22 16:09:19;;;;;;;11.55;2.67;;;16.50;60.60;;;;;;10444558;28;20033;-60
2023/01/22 16:14:20;;;;;;;6.47;2.13;;;16.60;62.70;;;;;;10440788;28;20065;-56
2023/01/22 16:19:21;;;;;;;12.30;3.50;;;16.60;65.70;;;;;;10450337;28;20120;-56
2023/01/22 16:24:21;;;;;;;10.52;3.85;;;16.70;67.40;;;;;;10430078;28;20074;-56
2023/01/22 16:29:22;;;;;;;9.68;4.07;;;16.60;69.20;;;;;;10445648;28;20017;-56
2023/01/22 16:34:23;;;;;;;5.88;3.65;;;16.50;69.80;;;;;;10439646;28;20025;-56
2023/01/22 16:39:25;;;;;;;11.30;4.13;;;16.60;68.40;;;;;;10446502;28;20652;-56
2023/01/22 16:44:26;;;;;;;7.68;4.07;;;16.70;68.50;;;;;;10444075;28;20033;-54
2023/01/22 16:49:30;;;;;;;6.85;3.55;;;16.70;69.40;;;;;;10444804;28;20171;-54
2023/01/22 16:54:36;;;;;;;12.48;3.63;;;16.80;69.30;;;;;;10433537;28;20017;-54
2023/01/22 16:59:39;;;;;;;9.80;2.85;;;17.20;66.80;;;;;;10434160;28;20610;-55
2023/01/22 17:04:40;;;;;;;8.38;2.78;;;17.40;65.60;;;;;;10408991;28;20087;-55
2023/01/22 17:09:41;;;;;;;6.60;3.53;;;17.20;65.90;;;;;;10441971;28;20373;-56
2023/01/22 17:14:41;;;;;;;10.30;3.80;;;16.90;66.30;;;;;;10447962;28;20496;-56
2023/01/22 17:19:42;;;;;;;5.22;2.85;;;16.70;66.70;;;;;;10435272;28;20037;-54
2023/01/22 17:24:43;;;;;;;7.43;3.70;;;16.40;67.20;;;;;;10447748;28;20557;-55
2023/01/22 17:29:44;;;;;;;5.40;2.80;;;16.20;67.80;;;;;;10409969;28;20832;-55
2023/01/22 17:34:44;;;;;;;7.65;2.33;;;16.00;68.40;;;;;;10441700;28;20052;-55
2023/01/22 17:39:49;;;;;;;8.35;2.80;;;15.90;68.30;;;;;;10421907;28;20422;-54
2023/01/22 17:44:50;;;;;;;9.77;2.70;;;15.80;67.70;;;;;;10435185;28;20022;-55
2023/01/22 17:49:50;;;;;;;7.55;2.70;;;15.80;67.20;;;;;;10444422;28;20028;-55
2023/01/22 17:54:54;;;;;;;8.10;3.70;;;15.80;66.90;;;;;;10440888;28;20512;-55
2023/01/22 17:59:54;;;;;;;4.03;2.58;;;15.80;66.70;;;;;;10441207;28;20435;-55
2023/01/22 18:04:55;;;;;;;9.07;2.75;;;15.80;66.40;;;;;;10432704;28;20021;-55
2023/01/22 18:09:56;;;;;;;6.22;2.47;;;15.90;66.10;;;;;;10418157;28;20104;-55
2023/01/22 18:14:56;;;;;;;4.50;2.08;;;15.90;65.90;;;;;;10435114;28;20041;-56
2023/01/22 18:19:57;;;;;;;4.68;2.45;;;15.90;65.80;;;;;;10446127;28;20053;-55
2023/01/22 18:24:58;;;;;;;3.53;1.77;;;15.90;65.70;;;;;;10444651;28;20603;-54
2023/01/22 18:29:58;;;;;;;5.03;3.17;;;15.90;65.60;;;;;;10406000;28;20022;-49
2023/01/22 18:34:59;;;;;;;8.35;3.45;;;15.90;65.60;;;;;;10417845;28;20064;-55
2023/01/22 18:40:00;;;;;;;6.05;3.38;;;15.90;65.60;;;;;;10421159;28;20104;-55
2023/01/22 18:45:00;;;;;;;6.70;3.45;;;15.90;65.50;;;;;;10432287;28;20024;-54
2023/01/22 18:50:01;;;;;;;6.65;3.38;;;15.80;65.50;;;;;;10426432;28;20104;-55
2023/01/22 18:55:02;;;;;;;6.88;3.30;;;15.80;65.40;;;;;;10442070;28;20097;-55
2023/01/22 19:00:03;;;;;;;6.93;3.15;;;15.90;65.30;;;;;;10440226;28;20037;-55
2023/01/22 19:05:05;;;;;;;4.60;2.80;;;15.90;65.00;;;;;;10444867;28;20047;-54
2023/01/22 19:10:07;;;;;;;5.05;2.67;;;16.00;64.60;;;;;;10440276;28;20119;-53
2023/01/22 19:15:09;;;;;;;5.15;2.95;;;16.00;64.60;;;;;;10440121;28;20053;-55
2023/01/22 19:20:13;;;;;;;7.68;2.92;;;16.00;64.60;;;;;;10441247;28;20051;-55
2023/01/22 19:25:14;;;;;;;5.97;2.75;;;16.00;64.40;;;;;;10442096;28;20452;-54
2023/01/22 19:30:16;;;;;;;4.55;2.70;;;16.00;64.30;;;;;;10439616;28;20020;-54
2023/01/22 19:35:18;;;;;;;5.38;2.92;;;16.00;64.30;;;;;;10441500;28;20019;-55
2023/01/22 19:40:20;;;;;;;8.43;2.75;;;16.10;64.20;;;;;;10448442;28;20009;-55
2023/01/22 19:45:21;;;;;;;5.47;2.55;;;16.00;64.10;;;;;;10448842;28;20094;-55
2023/01/22 19:50:24;;;;;;;5.72;2.50;;;16.00;64.10;;;;;;10450616;28;20012;-55
2023/01/22 19:55:25;;;;;;;3.55;2.67;;;16.00;64.10;;;;;;10461266;28;20103;-56
2023/01/22 20:00:25;;;;;;;5.20;2.88;;;16.00;64.10;;;;;;10449220;28;20033;-55
2023/01/22 20:05:26;;;;;;;5.65;2.65;;;16.00;64.00;;;;;;10442184;28;20025;-55
2023/01/22 20:10:27;;;;;;;6.40;2.53;;;16.00;64.00;;;;;;10433698;28;20159;-55
2023/01/22 20:15:27;;;;;;;5.28;2.22;;;15.90;63.90;;;;;;10450231;28;20116;-55
2023/01/22 20:20:28;;;;;;;5.57;2.30;;;16.00;63.80;;;;;;10451573;28;20037;-55
2023/01/22 20:25:30;;;;;;;5.20;2.63;;;16.00;63.60;;;;;;10448231;28;20022;-55
2023/01/22 20:30:31;;;;;;;5.55;2.00;;;16.00;63.40;;;;;;10433100;28;20021;-55
2023/01/22 20:35:32;;;;;;;5.03;2.08;;;16.00;63.40;;;;;;10459583;28;20402;-55
2023/01/22 20:40:33;;;;;;;4.28;2.35;;;15.90;64.20;;;;;;10431727;28;20104;-55
2023/01/22 20:45:34;;;;;;;5.43;2.30;;;15.80;63.80;;;;;;10426427;28;20545;-54
2023/01/22 20:50:40;;;;;;;5.63;2.45;;;15.70;63.90;;;;;;10414396;28;20072;-55
2023/01/22 20:55:41;;;;;;;3.83;2.15;;;15.60;64.00;;;;;;10416149;28;20376;-55
2023/01/22 21:00:42;;;;;;;3.20;1.92;;;15.50;64.10;;;;;;10463708;28;20116;-55
2023/01/22 21:05:42;;;;;;;5.85;2.17;;;15.40;64.30;;;;;;10448513;28;20120;-55
2023/01/22 21:10:59;;;;;;;4.30;2.22;;;15.40;64.40;;;;;;10433926;28;20035;-54
2023/01/22 21:16:10;;;;;;;3.50;2.22;;;15.30;64.50;;;;;;10424373;28;20170;-55
2023/01/22 21:21:17;;;;;;;4.03;2.35;;;15.10;64.50;;;;;;10453160;28;20078;-55
2023/01/22 21:26:24;;;;;;;5.45;2.15;;;15.10;64.50;;;;;;10448834;28;20052;-55
2023/01/22 21:31:26;;;;;;;4.97;2.35;;;15.00;64.50;;;;;;10436207;28;20032;-54
2023/01/22 21:36:35;;;;;;;4.72;2.60;;;15.00;64.60;;;;;;10420013;28;20097;-55
2023/01/22 21:41:37;;;;;;;4.13;2.30;;;14.90;64.60;;;;;;10433326;28;20064;-55
2023/01/22 21:46:42;;;;;;;4.07;2.83;;;14.80;64.40;;;;;;10417623;28;20502;-55
2023/01/22 21:52:08;;;;;;;3.15;2.15;;;14.80;64.50;;;;;;10413404;28;20025;-55
2023/01/22 21:57:15;;;;;;;3.58;2.65;;;14.70;64.50;;;;;;10405821;28;20030;-55
2023/01/22 22:02:17;;;;;;;3.47;2.17;;;14.70;64.30;;;;;;10405473;28;20025;-55
2023/01/22 22:07:19;;;;;;;4.95;2.72;;;14.60;64.50;;;;;;10405503;28;20021;-56
2023/01/22 22:12:19;;;;;;;4.63;2.10;;;14.60;64.60;;;;;;10406792;28;20049;-55
2023/01/22 22:17:20;;;;;;;3.72;2.85;;;14.60;64.70;;;;;;10422480;28;20031;-55
2023/01/22 22:22:20;;;;;;;3.92;2.80;;;14.50;64.60;;;;;;10462233;28;20104;-55
2023/01/22 22:27:21;;;;;;;5.35;2.70;;;14.50;64.50;;;;;;10445898;28;20120;-55
2023/01/22 22:32:22;;;;;;;4.03;2.70;;;14.40;64.50;;;;;;10413265;28;20573;-54
2023/01/22 22:37:22;;;;;;;4.55;2.42;;;14.40;64.50;;;;;;10404019;28;20120;-54
2023/01/22 22:42:23;;;;;;;3.70;2.28;;;14.30;64.30;;;;;;10412542;28;20092;-55
2023/01/22 22:47:24;;;;;;;4.13;2.50;;;14.30;64.40;;;;;;10408983;28;20044;-54
2023/01/22 22:52:25;;;;;;;5.88;2.78;;;14.30;64.40;;;;;;10393795;28;20045;-55
2023/01/22 22:57:25;;;;;;;4.43;3.28;;;14.30;64.50;;;;;;10430177;28;20116;-55
2023/01/22 23:02:26;;;;;;;5.38;2.47;;;14.20;64.50;;;;;;10419420;28;20018;-55
2023/01/22 23:07:27;;;;;;;3.35;2.38;;;14.20;64.40;;;;;;10404953;28;20018;-55
2023/01/22 23:12:27;;;;;;;3.53;2.30;;;14.20;64.50;;;;;;10408930;28;20148;-54
2023/01/22 23:17:28;;;;;;;5.13;2.85;;;14.20;64.40;;;;;;10413195;28;20116;-54
2023/01/22 23:22:29;;;;;;;3.70;2.20;;;14.10;64.40;;;;;;10431651;28;20087;-53
2023/01/22 23:27:29;;;;;;;3.97;2.53;;;14.10;64.40;;;;;;10440839;28;20104;-55
2023/01/22 23:32:30;;;;;;;4.90;3.00;;;14.10;64.30;;;;;;10419822;28;20112;-55
2023/01/22 23:37:31;;;;;;;3.35;2.35;;;14.10;64.40;;;;;;10412363;28;20030;-55
2023/01/22 23:42:31;;;;;;;3.30;2.20;;;14.10;64.20;;;;;;10412839;28;20049;-55
2023/01/22 23:47:32;;;;;;;4.70;2.30;;;14.00;64.70;;;;;;10421785;28;20119;-55
2023/01/22 23:52:33;;;;;;;3.88;1.88;;;14.00;64.50;;;;;;10431475;28;20082;-55
2023/01/22 23:57:34;;;;;;;3.70;2.33;;;14.00;64.30;;;;;;10452603;28;20055;-54
